sensor_id;sensor_type;location;lat;lon;timestamp;P1;durP1;ratioP1;P2;durP2;ratioP2
2452;SDS011;63678;47.994;7.854;2023-08-06T00:00:50;6.43;;;3.63;;
2452;SDS011;63678;47.994;7.854;2023-08-06T00:03:22;6.50;;;2.80;;
2452;SDS011;63678;47.994;7.854;2023-08-06T00:05:55;7.65;;;3.25;;
2452;SDS011;63678;47.994;7.854;2023-08-06T00:08:27;8.23;;;3.28;;
2452;SDS011;63678;47.994;7.854;2023-08-06T00:10:59;6.07;;;2.83;;
2452;SDS011;63678;47.994;7.854;2023-08-06T00:13:31;7.40;;;3.00;;
2452;SDS011;63678;47.994;7.854;2023-08-06T00:18:43;5.25;;;2.60;;
2452;SDS011;63678;47.994;7.854;2023-08-06T00:21:16;8.80;;;2.92;;
2452;SDS011;63678;47.994;7.854;2023-08-06T00:23:48;7.68;;;3.47;;
2452;SDS011;63678;47.994;7.854;2023-08-06T00:26:21;8.07;;;3.20;;
2452;SDS011;63678;47.994;7.854;2023-08-06T00:28:53;6.80;;;3.10;;
2452;SDS011;63678;47.994;7.854;2023-08-06T00:31:26;5.60;;;2.92;;
2452;SDS011;63678;47.994;7.854;2023-08-06T00:33:58;7.28;;;2.92;;
2452;SDS011;63678;47.994;7.854;2023-08-06T00:36:31;9.45;;;2.80;;
2452;SDS011;63678;47.994;7.854;2023-08-06T00:39:04;6.03;;;2.88;;
2452;SDS011;63678;47.994;7.854;2023-08-06T00:41:38;6.00;;;2.67;;
2452;SDS011;63678;47.994;7.854;2023-08-06T00:44:10;7.30;;;3.20;;
2452;SDS011;63678;47.994;7.854;2023-08-06T00:46:43;6.50;;;2.67;;
2452;SDS011;63678;47.994;7.854;2023-08-06T00:49:16;6.95;;;2.78;;
2452;SDS011;63678;47.994;7.854;2023-08-06T00:51:49;5.30;;;2.38;;
2452;SDS011;63678;47.994;7.854;2023-08-06T00:54:22;8.40;;;2.67;;
2452;SDS011;63678;47.994;7.854;2023-08-06T00:56:56;6.47;;;2.85;;
2452;SDS011;63678;47.994;7.854;2023-08-06T00:59:29;5.07;;;2.50;;
2452;SDS011;63678;47.994;7.854;2023-08-06T01:02:02;5.90;;;3.00;;
2452;SDS011;63678;47.994;7.854;2023-08-06T01:04:35;7.15;;;2.38;;
2452;SDS011;63678;47.994;7.854;2023-08-06T01:07:51;6.87;;;2.67;;
2452;SDS011;63678;47.994;7.854;2023-08-06T01:13:31;6.85;;;2.40;;
2452;SDS011;63678;47.994;7.854;2023-08-06T01:16:18;6.10;;;2.58;;
2452;SDS011;63678;47.994;7.854;2023-08-06T01:18:53;7.10;;;2.35;;
2452;SDS011;63678;47.994;7.854;2023-08-06T01:21:25;6.40;;;2.50;;
2452;SDS011;63678;47.994;7.854;2023-08-06T01:23:58;5.93;;;2.33;;
2452;SDS011;63678;47.994;7.854;2023-08-06T01:26:33;6.10;;;2.53;;
2452;SDS011;63678;47.994;7.854;2023-08-06T01:29:20;6.88;;;2.15;;
2452;SDS011;63678;47.994;7.854;2023-08-06T01:32:11;6.18;;;2.28;;
2452;SDS011;63678;47.994;7.854;2023-08-06T01:34:45;5.20;;;2.00;;
2452;SDS011;63678;47.994;7.854;2023-08-06T01:37:21;3.85;;;2.00;;
2452;SDS011;63678;47.994;7.854;2023-08-06T01:39:54;5.50;;;1.92;;
2452;SDS011;63678;47.994;7.854;2023-08-06T01:42:26;4.70;;;2.30;;
2452;SDS011;63678;47.994;7.854;2023-08-06T01:44:58;5.40;;;2.40;;
2452;SDS011;63678;47.994;7.854;2023-08-06T01:47:31;5.13;;;2.10;;
2452;SDS011;63678;47.994;7.854;2023-08-06T01:50:03;5.32;;;2.50;;
2452;SDS011;63678;47.994;7.854;2023-08-06T01:52:36;3.80;;;2.00;;
2452;SDS011;63678;47.994;7.854;2023-08-06T01:55:09;5.78;;;2.45;;
2452;SDS011;63678;47.994;7.854;2023-08-06T01:57:41;5.28;;;2.33;;
2452;SDS011;63678;47.994;7.854;2023-08-06T02:00:14;5.43;;;2.13;;
2452;SDS011;63678;47.994;7.854;2023-08-06T02:02:46;5.00;;;2.13;;
2452;SDS011;63678;47.994;7.854;2023-08-06T02:05:19;4.80;;;2.13;;
2452;SDS011;63678;47.994;7.854;2023-08-06T02:07:51;5.13;;;2.10;;
2452;SDS011;63678;47.994;7.854;2023-08-06T02:10:23;5.60;;;2.45;;
2452;SDS011;63678;47.994;7.854;2023-08-06T02:12:56;6.33;;;2.30;;
2452;SDS011;63678;47.994;7.854;2023-08-06T02:15:28;6.63;;;2.22;;
2452;SDS011;63678;47.994;7.854;2023-08-06T02:18:01;5.00;;;2.20;;
2452;SDS011;63678;47.994;7.854;2023-08-06T02:20:33;6.63;;;2.20;;
2452;SDS011;63678;47.994;7.854;2023-08-06T02:23:06;6.50;;;2.50;;
2452;SDS011;63678;47.994;7.854;2023-08-06T02:25:38;5.57;;;2.40;;
2452;SDS011;63678;47.994;7.854;2023-08-06T02:28:11;6.53;;;2.38;;
2452;SDS011;63678;47.994;7.854;2023-08-06T02:30:50;6.78;;;2.50;;
2452;SDS011;63678;47.994;7.854;2023-08-06T02:33:23;5.82;;;2.30;;
2452;SDS011;63678;47.994;7.854;2023-08-06T02:36:00;3.85;;;2.20;;
2452;SDS011;63678;47.994;7.854;2023-08-06T02:38:35;5.07;;;2.17;;
2452;SDS011;63678;47.994;7.854;2023-08-06T02:41:07;5.55;;;2.00;;
2452;SDS011;63678;47.994;7.854;2023-08-06T02:43:39;5.25;;;2.28;;
2452;SDS011;63678;47.994;7.854;2023-08-06T02:46:12;6.70;;;2.33;;
2452;SDS011;63678;47.994;7.854;2023-08-06T02:48:44;7.75;;;3.25;;
2452;SDS011;63678;47.994;7.854;2023-08-06T02:51:17;5.67;;;1.80;;
2452;SDS011;63678;47.994;7.854;2023-08-06T02:53:49;4.57;;;2.00;;
2452;SDS011;63678;47.994;7.854;2023-08-06T02:56:23;4.78;;;1.80;;
2452;SDS011;63678;47.994;7.854;2023-08-06T02:59:14;6.40;;;2.05;;
2452;SDS011;63678;47.994;7.854;2023-08-06T03:01:55;4.63;;;2.15;;
2452;SDS011;63678;47.994;7.854;2023-08-06T03:04:34;5.73;;;1.50;;
2452;SDS011;63678;47.994;7.854;2023-08-06T03:07:07;4.70;;;1.67;;
2452;SDS011;63678;47.994;7.854;2023-08-06T03:09:48;4.30;;;1.70;;
2452;SDS011;63678;47.994;7.854;2023-08-06T03:12:22;5.20;;;2.10;;
2452;SDS011;63678;47.994;7.854;2023-08-06T03:14:54;8.02;;;1.60;;
2452;SDS011;63678;47.994;7.854;2023-08-06T03:17:27;3.45;;;1.40;;
2452;SDS011;63678;47.994;7.854;2023-08-06T03:19:59;4.57;;;1.20;;
2452;SDS011;63678;47.994;7.854;2023-08-06T03:22:33;3.33;;;1.55;;
2452;SDS011;63678;47.994;7.854;2023-08-06T03:25:05;3.50;;;1.48;;
2452;SDS011;63678;47.994;7.854;2023-08-06T03:27:40;5.15;;;1.50;;
2452;SDS011;63678;47.994;7.854;2023-08-06T03:30:11;3.70;;;1.17;;
2452;SDS011;63678;47.994;7.854;2023-08-06T03:32:44;5.68;;;1.60;;
2452;SDS011;63678;47.994;7.854;2023-08-06T03:35:20;5.10;;;1.40;;
2452;SDS011;63678;47.994;7.854;2023-08-06T03:37:53;3.83;;;1.48;;
2452;SDS011;63678;47.994;7.854;2023-08-06T03:40:25;4.57;;;1.55;;
2452;SDS011;63678;47.994;7.854;2023-08-06T03:42:59;5.60;;;1.20;;
2452;SDS011;63678;47.994;7.854;2023-08-06T03:45:31;4.65;;;1.30;;
2452;SDS011;63678;47.994;7.854;2023-08-06T03:48:04;3.33;;;1.20;;
2452;SDS011;63678;47.994;7.854;2023-08-06T03:50:36;6.47;;;1.60;;
2452;SDS011;63678;47.994;7.854;2023-08-06T03:53:15;3.92;;;1.40;;
2452;SDS011;63678;47.994;7.854;2023-08-06T03:55:48;4.95;;;1.60;;
2452;SDS011;63678;47.994;7.854;2023-08-06T03:58:20;4.22;;;1.73;;
2452;SDS011;63678;47.994;7.854;2023-08-06T04:01:01;3.58;;;1.42;;
2452;SDS011;63678;47.994;7.854;2023-08-06T04:03:41;4.32;;;1.55;;
2452;SDS011;63678;47.994;7.854;2023-08-06T04:06:13;3.25;;;1.30;;
2452;SDS011;63678;47.994;7.854;2023-08-06T04:08:45;5.60;;;1.60;;
2452;SDS011;63678;47.994;7.854;2023-08-06T04:11:17;3.38;;;1.30;;
2452;SDS011;63678;47.994;7.854;2023-08-06T04:13:50;3.53;;;1.40;;
2452;SDS011;63678;47.994;7.854;2023-08-06T04:16:22;3.92;;;1.20;;
2452;SDS011;63678;47.994;7.854;2023-08-06T04:18:54;6.25;;;1.60;;
2452;SDS011;63678;47.994;7.854;2023-08-06T04:21:26;5.95;;;1.80;;
2452;SDS011;63678;47.994;7.854;2023-08-06T04:23:59;6.75;;;1.88;;
2452;SDS011;63678;47.994;7.854;2023-08-06T04:26:32;5.35;;;1.52;;
2452;SDS011;63678;47.994;7.854;2023-08-06T04:29:04;5.75;;;1.70;;
2452;SDS011;63678;47.994;7.854;2023-08-06T04:31:37;3.88;;;1.65;;
2452;SDS011;63678;47.994;7.854;2023-08-06T04:34:10;7.35;;;1.80;;
2452;SDS011;63678;47.994;7.854;2023-08-06T04:36:43;5.07;;;1.90;;
2452;SDS011;63678;47.994;7.854;2023-08-06T04:39:16;8.65;;;2.22;;
2452;SDS011;63678;47.994;7.854;2023-08-06T04:41:48;6.28;;;2.25;;
2452;SDS011;63678;47.994;7.854;2023-08-06T04:44:21;6.88;;;2.28;;
2452;SDS011;63678;47.994;7.854;2023-08-06T04:46:53;9.02;;;2.00;;
2452;SDS011;63678;47.994;7.854;2023-08-06T04:49:25;6.75;;;2.10;;
2452;SDS011;63678;47.994;7.854;2023-08-06T04:51:58;8.02;;;1.88;;
2452;SDS011;63678;47.994;7.854;2023-08-06T04:54:31;9.13;;;2.13;;
2452;SDS011;63678;47.994;7.854;2023-08-06T04:57:03;9.73;;;2.55;;
2452;SDS011;63678;47.994;7.854;2023-08-06T04:59:35;6.45;;;2.30;;
2452;SDS011;63678;47.994;7.854;2023-08-06T05:02:07;9.60;;;3.05;;
2452;SDS011;63678;47.994;7.854;2023-08-06T05:04:40;7.25;;;2.47;;
2452;SDS011;63678;47.994;7.854;2023-08-06T05:07:12;9.82;;;3.08;;
2452;SDS011;63678;47.994;7.854;2023-08-06T05:09:45;9.57;;;2.20;;
2452;SDS011;63678;47.994;7.854;2023-08-06T05:12:17;7.45;;;2.25;;
2452;SDS011;63678;47.994;7.854;2023-08-06T05:14:49;9.48;;;2.22;;
2452;SDS011;63678;47.994;7.854;2023-08-06T05:17:21;9.20;;;2.10;;
2452;SDS011;63678;47.994;7.854;2023-08-06T05:19:54;7.65;;;2.60;;
2452;SDS011;63678;47.994;7.854;2023-08-06T05:22:26;7.90;;;2.25;;
2452;SDS011;63678;47.994;7.854;2023-08-06T05:24:59;9.38;;;2.65;;
2452;SDS011;63678;47.994;7.854;2023-08-06T05:27:31;8.50;;;2.05;;
2452;SDS011;63678;47.994;7.854;2023-08-06T05:30:04;10.27;;;2.30;;
2452;SDS011;63678;47.994;7.854;2023-08-06T05:32:37;7.13;;;2.60;;
2452;SDS011;63678;47.994;7.854;2023-08-06T05:35:09;8.40;;;2.95;;
2452;SDS011;63678;47.994;7.854;2023-08-06T05:37:41;8.00;;;2.35;;
2452;SDS011;63678;47.994;7.854;2023-08-06T05:40:14;10.63;;;2.60;;
2452;SDS011;63678;47.994;7.854;2023-08-06T05:42:46;7.53;;;2.42;;
2452;SDS011;63678;47.994;7.854;2023-08-06T05:45:18;5.63;;;2.20;;
2452;SDS011;63678;47.994;7.854;2023-08-06T05:47:50;6.93;;;2.72;;
2452;SDS011;63678;47.994;7.854;2023-08-06T05:50:25;7.05;;;2.15;;
2452;SDS011;63678;47.994;7.854;2023-08-06T05:52:58;11.80;;;2.40;;
2452;SDS011;63678;47.994;7.854;2023-08-06T05:55:33;7.57;;;2.10;;
2452;SDS011;63678;47.994;7.854;2023-08-06T05:58:05;7.10;;;2.20;;
2452;SDS011;63678;47.994;7.854;2023-08-06T06:00:38;8.10;;;2.20;;
2452;SDS011;63678;47.994;7.854;2023-08-06T06:03:10;8.15;;;2.10;;
2452;SDS011;63678;47.994;7.854;2023-08-06T06:05:44;6.47;;;2.03;;
2452;SDS011;63678;47.994;7.854;2023-08-06T06:08:16;5.93;;;2.10;;
2452;SDS011;63678;47.994;7.854;2023-08-06T06:10:49;7.78;;;1.90;;
2452;SDS011;63678;47.994;7.854;2023-08-06T06:13:21;8.65;;;2.53;;
2452;SDS011;63678;47.994;7.854;2023-08-06T06:15:56;7.15;;;1.95;;
2452;SDS011;63678;47.994;7.854;2023-08-06T06:18:28;6.80;;;2.13;;
2452;SDS011;63678;47.994;7.854;2023-08-06T06:21:00;7.20;;;2.03;;
2452;SDS011;63678;47.994;7.854;2023-08-06T06:23:32;9.27;;;2.38;;
2452;SDS011;63678;47.994;7.854;2023-08-06T06:26:05;7.55;;;2.13;;
2452;SDS011;63678;47.994;7.854;2023-08-06T06:28:38;7.80;;;2.05;;
2452;SDS011;63678;47.994;7.854;2023-08-06T06:31:10;4.57;;;1.60;;
2452;SDS011;63678;47.994;7.854;2023-08-06T06:33:42;8.18;;;2.15;;
2452;SDS011;63678;47.994;7.854;2023-08-06T06:36:14;7.35;;;2.20;;
2452;SDS011;63678;47.994;7.854;2023-08-06T06:38:46;4.68;;;1.77;;
2452;SDS011;63678;47.994;7.854;2023-08-06T06:41:20;4.25;;;1.90;;
2452;SDS011;63678;47.994;7.854;2023-08-06T06:43:52;5.72;;;1.80;;
2452;SDS011;63678;47.994;7.854;2023-08-06T06:46:25;6.53;;;1.88;;
2452;SDS011;63678;47.994;7.854;2023-08-06T06:48:57;5.18;;;1.70;;
2452;SDS011;63678;47.994;7.854;2023-08-06T06:51:29;6.68;;;1.92;;
2452;SDS011;63678;47.994;7.854;2023-08-06T06:54:03;7.43;;;2.45;;
2452;SDS011;63678;47.994;7.854;2023-08-06T06:56:35;5.88;;;2.25;;
2452;SDS011;63678;47.994;7.854;2023-08-06T06:59:07;8.25;;;1.95;;
2452;SDS011;63678;47.994;7.854;2023-08-06T07:01:40;5.47;;;1.83;;
2452;SDS011;63678;47.994;7.854;2023-08-06T07:04:12;5.10;;;1.92;;
2452;SDS011;63678;47.994;7.854;2023-08-06T07:06:44;6.65;;;2.38;;
2452;SDS011;63678;47.994;7.854;2023-08-06T07:09:17;4.70;;;1.80;;
2452;SDS011;63678;47.994;7.854;2023-08-06T07:11:49;5.38;;;1.80;;
2452;SDS011;63678;47.994;7.854;2023-08-06T07:14:21;4.05;;;1.85;;
2452;SDS011;63678;47.994;7.854;2023-08-06T07:16:56;4.40;;;1.60;;
2452;SDS011;63678;47.994;7.854;2023-08-06T07:19:29;5.30;;;1.98;;
2452;SDS011;63678;47.994;7.854;2023-08-06T07:22:04;6.07;;;1.90;;
2452;SDS011;63678;47.994;7.854;2023-08-06T07:24:36;3.50;;;1.60;;
2452;SDS011;63678;47.994;7.854;2023-08-06T07:27:09;4.45;;;1.75;;
2452;SDS011;63678;47.994;7.854;2023-08-06T07:29:41;3.92;;;1.85;;
2452;SDS011;63678;47.994;7.854;2023-08-06T07:32:13;5.05;;;1.77;;
2452;SDS011;63678;47.994;7.854;2023-08-06T07:34:45;4.20;;;1.73;;
2452;SDS011;63678;47.994;7.854;2023-08-06T07:37:18;4.40;;;1.75;;
2452;SDS011;63678;47.994;7.854;2023-08-06T07:39:50;3.70;;;1.70;;
2452;SDS011;63678;47.994;7.854;2023-08-06T07:42:22;3.38;;;1.60;;
2452;SDS011;63678;47.994;7.854;2023-08-06T07:44:55;4.45;;;1.73;;
2452;SDS011;63678;47.994;7.854;2023-08-06T07:47:29;3.83;;;1.33;;
2452;SDS011;63678;47.994;7.854;2023-08-06T07:50:01;3.08;;;1.30;;
2452;SDS011;63678;47.994;7.854;2023-08-06T07:52:34;2.75;;;1.25;;
2452;SDS011;63678;47.994;7.854;2023-08-06T07:55:06;3.25;;;1.40;;
2452;SDS011;63678;47.994;7.854;2023-08-06T07:57:39;3.27;;;1.50;;
2452;SDS011;63678;47.994;7.854;2023-08-06T08:00:12;3.58;;;1.58;;
2452;SDS011;63678;47.994;7.854;2023-08-06T08:02:45;3.17;;;1.20;;
2452;SDS011;63678;47.994;7.854;2023-08-06T08:05:18;3.97;;;1.20;;
2452;SDS011;63678;47.994;7.854;2023-08-06T08:07:50;4.22;;;1.40;;
2452;SDS011;63678;47.994;7.854;2023-08-06T08:10:22;3.00;;;1.37;;
2452;SDS011;63678;47.994;7.854;2023-08-06T08:12:54;3.63;;;1.38;;
2452;SDS011;63678;47.994;7.854;2023-08-06T08:15:27;3.50;;;1.52;;
2452;SDS011;63678;47.994;7.854;2023-08-06T08:18:01;3.13;;;1.40;;
2452;SDS011;63678;47.994;7.854;2023-08-06T08:20:33;3.70;;;1.30;;
2452;SDS011;63678;47.994;7.854;2023-08-06T08:23:07;3.43;;;1.33;;
2452;SDS011;63678;47.994;7.854;2023-08-06T08:25:38;3.17;;;1.20;;
2452;SDS011;63678;47.994;7.854;2023-08-06T08:28:11;3.00;;;1.42;;
2452;SDS011;63678;47.994;7.854;2023-08-06T08:30:43;2.83;;;1.35;;
2452;SDS011;63678;47.994;7.854;2023-08-06T08:33:15;2.95;;;1.23;;
2452;SDS011;63678;47.994;7.854;2023-08-06T08:35:48;4.55;;;1.48;;
2452;SDS011;63678;47.994;7.854;2023-08-06T08:38:20;5.90;;;1.60;;
2452;SDS011;63678;47.994;7.854;2023-08-06T08:40:53;3.85;;;1.63;;
2452;SDS011;63678;47.994;7.854;2023-08-06T08:43:26;4.90;;;1.60;;
2452;SDS011;63678;47.994;7.854;2023-08-06T08:46:00;3.35;;;1.55;;
2452;SDS011;63678;47.994;7.854;2023-08-06T08:48:35;3.47;;;1.52;;
2452;SDS011;63678;47.994;7.854;2023-08-06T08:51:08;3.55;;;1.70;;
2452;SDS011;63678;47.994;7.854;2023-08-06T08:53:42;4.05;;;1.60;;
2452;SDS011;63678;47.994;7.854;2023-08-06T08:56:16;4.05;;;2.05;;
2452;SDS011;63678;47.994;7.854;2023-08-06T08:58:49;5.25;;;2.08;;
2452;SDS011;63678;47.994;7.854;2023-08-06T09:01:24;4.90;;;1.63;;
2452;SDS011;63678;47.994;7.854;2023-08-06T09:03:58;3.80;;;1.60;;
2452;SDS011;63678;47.994;7.854;2023-08-06T09:06:32;3.25;;;1.67;;
2452;SDS011;63678;47.994;7.854;2023-08-06T09:09:12;3.03;;;1.50;;
2452;SDS011;63678;47.994;7.854;2023-08-06T09:11:48;4.03;;;1.67;;
2452;SDS011;63678;47.994;7.854;2023-08-06T09:14:22;3.00;;;1.33;;
2452;SDS011;63678;47.994;7.854;2023-08-06T09:16:55;3.10;;;1.40;;
2452;SDS011;63678;47.994;7.854;2023-08-06T09:19:29;4.45;;;2.00;;
2452;SDS011;63678;47.994;7.854;2023-08-06T09:22:01;4.13;;;1.48;;
2452;SDS011;63678;47.994;7.854;2023-08-06T09:24:34;2.80;;;1.20;;
2452;SDS011;63678;47.994;7.854;2023-08-06T09:27:11;4.00;;;1.73;;
2452;SDS011;63678;47.994;7.854;2023-08-06T09:29:45;3.40;;;1.83;;
2452;SDS011;63678;47.994;7.854;2023-08-06T09:32:18;3.53;;;1.60;;
2452;SDS011;63678;47.994;7.854;2023-08-06T09:34:55;3.35;;;1.55;;
2452;SDS011;63678;47.994;7.854;2023-08-06T09:37:35;3.97;;;1.50;;
2452;SDS011;63678;47.994;7.854;2023-08-06T09:40:27;3.43;;;1.30;;
2452;SDS011;63678;47.994;7.854;2023-08-06T09:43:01;2.70;;;1.10;;
2452;SDS011;63678;47.994;7.854;2023-08-06T09:45:37;3.20;;;1.23;;
2452;SDS011;63678;47.994;7.854;2023-08-06T09:48:10;2.80;;;1.20;;
2452;SDS011;63678;47.994;7.854;2023-08-06T09:50:43;6.10;;;1.40;;
2452;SDS011;63678;47.994;7.854;2023-08-06T09:53:16;3.08;;;1.40;;
2452;SDS011;63678;47.994;7.854;2023-08-06T09:55:50;5.47;;;1.38;;
2452;SDS011;63678;47.994;7.854;2023-08-06T09:58:22;3.17;;;1.40;;
2452;SDS011;63678;47.994;7.854;2023-08-06T10:00:56;5.03;;;1.30;;
2452;SDS011;63678;47.994;7.854;2023-08-06T10:03:29;3.10;;;1.30;;
2452;SDS011;63678;47.994;7.854;2023-08-06T10:06:03;3.28;;;1.70;;
2452;SDS011;63678;47.994;7.854;2023-08-06T10:08:39;3.42;;;1.42;;
2452;SDS011;63678;47.994;7.854;2023-08-06T10:11:13;3.40;;;1.52;;
2452;SDS011;63678;47.994;7.854;2023-08-06T10:13:48;3.10;;;1.30;;
2452;SDS011;63678;47.994;7.854;2023-08-06T10:16:25;3.38;;;1.52;;
2452;SDS011;63678;47.994;7.854;2023-08-06T10:18:57;3.10;;;1.43;;
2452;SDS011;63678;47.994;7.854;2023-08-06T10:21:31;5.47;;;1.60;;
2452;SDS011;63678;47.994;7.854;2023-08-06T10:24:03;3.30;;;1.50;;
2452;SDS011;63678;47.994;7.854;2023-08-06T10:26:42;3.55;;;1.40;;
2452;SDS011;63678;47.994;7.854;2023-08-06T10:29:34;3.30;;;1.30;;
2452;SDS011;63678;47.994;7.854;2023-08-06T10:32:09;3.63;;;1.30;;
2452;SDS011;63678;47.994;7.854;2023-08-06T10:34:57;3.92;;;1.50;;
2452;SDS011;63678;47.994;7.854;2023-08-06T10:37:35;3.85;;;1.27;;
2452;SDS011;63678;47.994;7.854;2023-08-06T10:40:08;3.40;;;1.60;;
2452;SDS011;63678;47.994;7.854;2023-08-06T10:42:41;5.32;;;1.52;;
2452;SDS011;63678;47.994;7.854;2023-08-06T10:45:17;3.50;;;1.27;;
2452;SDS011;63678;47.994;7.854;2023-08-06T10:48:11;2.97;;;1.50;;
2452;SDS011;63678;47.994;7.854;2023-08-06T10:50:43;3.47;;;1.20;;
2452;SDS011;63678;47.994;7.854;2023-08-06T10:53:15;3.92;;;1.50;;
2452;SDS011;63678;47.994;7.854;2023-08-06T10:55:57;3.90;;;1.63;;
2452;SDS011;63678;47.994;7.854;2023-08-06T10:58:59;2.80;;;1.20;;
2452;SDS011;63678;47.994;7.854;2023-08-06T11:01:38;3.83;;;1.67;;
2452;SDS011;63678;47.994;7.854;2023-08-06T11:04:10;3.17;;;1.30;;
2452;SDS011;63678;47.994;7.854;2023-08-06T11:06:51;4.28;;;1.58;;
2452;SDS011;63678;47.994;7.854;2023-08-06T11:09:25;3.90;;;1.60;;
2452;SDS011;63678;47.994;7.854;2023-08-06T11:11:58;3.50;;;1.70;;
2452;SDS011;63678;47.994;7.854;2023-08-06T11:14:30;4.30;;;1.60;;
2452;SDS011;63678;47.994;7.854;2023-08-06T11:17:02;4.00;;;1.80;;
2452;SDS011;63678;47.994;7.854;2023-08-06T11:19:35;7.18;;;1.65;;
2452;SDS011;63678;47.994;7.854;2023-08-06T11:22:07;3.80;;;1.70;;
2452;SDS011;63678;47.994;7.854;2023-08-06T11:24:39;4.05;;;1.80;;
2452;SDS011;63678;47.994;7.854;2023-08-06T11:27:12;6.00;;;2.10;;
2452;SDS011;63678;47.994;7.854;2023-08-06T11:29:47;4.05;;;1.70;;
2452;SDS011;63678;47.994;7.854;2023-08-06T11:32:20;4.68;;;1.60;;
2452;SDS011;63678;47.994;7.854;2023-08-06T11:34:53;4.30;;;1.63;;
2452;SDS011;63678;47.994;7.854;2023-08-06T11:37:28;3.83;;;1.40;;
2452;SDS011;63678;47.994;7.854;2023-08-06T11:40:00;3.40;;;1.60;;
2452;SDS011;63678;47.994;7.854;2023-08-06T11:42:32;3.75;;;1.60;;
2452;SDS011;63678;47.994;7.854;2023-08-06T11:45:05;3.03;;;1.40;;
2452;SDS011;63678;47.994;7.854;2023-08-06T11:47:38;3.28;;;1.55;;
2452;SDS011;63678;47.994;7.854;2023-08-06T11:50:21;2.95;;;1.30;;
2452;SDS011;63678;47.994;7.854;2023-08-06T11:52:58;3.33;;;1.40;;
2452;SDS011;63678;47.994;7.854;2023-08-06T11:55:32;3.00;;;1.30;;
2452;SDS011;63678;47.994;7.854;2023-08-06T11:58:05;3.38;;;1.63;;
2452;SDS011;63678;47.994;7.854;2023-08-06T12:00:38;3.17;;;1.38;;
2452;SDS011;63678;47.994;7.854;2023-08-06T12:03:10;2.97;;;1.17;;
2452;SDS011;63678;47.994;7.854;2023-08-06T12:05:42;3.10;;;1.40;;
2452;SDS011;63678;47.994;7.854;2023-08-06T12:08:18;3.08;;;1.15;;
2452;SDS011;63678;47.994;7.854;2023-08-06T12:10:50;2.97;;;1.40;;
2452;SDS011;63678;47.994;7.854;2023-08-06T12:13:31;3.60;;;1.55;;
2452;SDS011;63678;47.994;7.854;2023-08-06T12:16:12;3.93;;;1.53;;
2452;SDS011;63678;47.994;7.854;2023-08-06T12:18:45;6.25;;;1.50;;
2452;SDS011;63678;47.994;7.854;2023-08-06T12:21:19;3.28;;;1.40;;
2452;SDS011;63678;47.994;7.854;2023-08-06T12:23:51;7.13;;;1.80;;
2452;SDS011;63678;47.994;7.854;2023-08-06T12:26:24;4.07;;;1.58;;
2452;SDS011;63678;47.994;7.854;2023-08-06T12:28:56;3.53;;;1.60;;
2452;SDS011;63678;47.994;7.854;2023-08-06T12:31:29;4.35;;;1.85;;
2452;SDS011;63678;47.994;7.854;2023-08-06T12:34:01;3.33;;;1.40;;
2452;SDS011;63678;47.994;7.854;2023-08-06T12:36:34;4.07;;;1.30;;
2452;SDS011;63678;47.994;7.854;2023-08-06T12:39:05;3.72;;;1.40;;
2452;SDS011;63678;47.994;7.854;2023-08-06T12:41:38;2.97;;;1.37;;
2452;SDS011;63678;47.994;7.854;2023-08-06T12:44:10;2.80;;;1.10;;
2452;SDS011;63678;47.994;7.854;2023-08-06T12:46:43;4.65;;;1.52;;
2452;SDS011;63678;47.994;7.854;2023-08-06T12:49:15;4.22;;;1.77;;
2452;SDS011;63678;47.994;7.854;2023-08-06T12:51:48;3.00;;;1.30;;
2452;SDS011;63678;47.994;7.854;2023-08-06T12:54:21;5.87;;;1.80;;
2452;SDS011;63678;47.994;7.854;2023-08-06T12:56:54;4.28;;;1.50;;
2452;SDS011;63678;47.994;7.854;2023-08-06T12:59:26;5.43;;;1.63;;
2452;SDS011;63678;47.994;7.854;2023-08-06T13:01:59;3.58;;;1.13;;
2452;SDS011;63678;47.994;7.854;2023-08-06T13:04:32;3.22;;;1.52;;
2452;SDS011;63678;47.994;7.854;2023-08-06T13:07:05;3.57;;;1.70;;
2452;SDS011;63678;47.994;7.854;2023-08-06T13:09:37;3.60;;;1.80;;
2452;SDS011;63678;47.994;7.854;2023-08-06T13:12:10;4.25;;;1.60;;
2452;SDS011;63678;47.994;7.854;2023-08-06T13:14:42;4.05;;;1.70;;
2452;SDS011;63678;47.994;7.854;2023-08-06T13:17:17;7.80;;;3.38;;
2452;SDS011;63678;47.994;7.854;2023-08-06T13:19:48;4.10;;;1.70;;
2452;SDS011;63678;47.994;7.854;2023-08-06T13:22:21;4.43;;;1.48;;
2452;SDS011;63678;47.994;7.854;2023-08-06T13:24:53;3.60;;;1.38;;
2452;SDS011;63678;47.994;7.854;2023-08-06T13:27:25;3.33;;;1.20;;
2452;SDS011;63678;47.994;7.854;2023-08-06T13:29:58;4.10;;;2.03;;
2452;SDS011;63678;47.994;7.854;2023-08-06T13:32:30;3.40;;;1.50;;
2452;SDS011;63678;47.994;7.854;2023-08-06T13:35:04;3.88;;;1.42;;
2452;SDS011;63678;47.994;7.854;2023-08-06T13:37:37;4.32;;;1.90;;
2452;SDS011;63678;47.994;7.854;2023-08-06T13:40:10;5.82;;;1.70;;
2452;SDS011;63678;47.994;7.854;2023-08-06T13:42:43;4.38;;;2.00;;
2452;SDS011;63678;47.994;7.854;2023-08-06T13:45:18;2.97;;;1.20;;
2452;SDS011;63678;47.994;7.854;2023-08-06T13:47:50;3.70;;;1.42;;
2452;SDS011;63678;47.994;7.854;2023-08-06T13:50:22;4.18;;;1.50;;
2452;SDS011;63678;47.994;7.854;2023-08-06T13:52:57;3.97;;;1.60;;
2452;SDS011;63678;47.994;7.854;2023-08-06T13:55:29;5.65;;;2.03;;
2452;SDS011;63678;47.994;7.854;2023-08-06T13:58:01;3.60;;;1.80;;
2452;SDS011;63678;47.994;7.854;2023-08-06T14:00:35;3.90;;;1.58;;
2452;SDS011;63678;47.994;7.854;2023-08-06T14:03:08;4.03;;;2.03;;
2452;SDS011;63678;47.994;7.854;2023-08-06T14:05:41;3.33;;;1.40;;
2452;SDS011;63678;47.994;7.854;2023-08-06T14:08:13;4.80;;;2.00;;
2452;SDS011;63678;47.994;7.854;2023-08-06T14:10:46;3.47;;;1.87;;
2452;SDS011;63678;47.994;7.854;2023-08-06T14:13:18;4.30;;;1.70;;
2452;SDS011;63678;47.994;7.854;2023-08-06T14:15:51;4.15;;;1.60;;
2452;SDS011;63678;47.994;7.854;2023-08-06T14:18:23;3.40;;;1.50;;
2452;SDS011;63678;47.994;7.854;2023-08-06T14:20:55;4.32;;;1.52;;
2452;SDS011;63678;47.994;7.854;2023-08-06T14:23:28;3.30;;;1.60;;
2452;SDS011;63678;47.994;7.854;2023-08-06T14:26:00;3.35;;;1.55;;
2452;SDS011;63678;47.994;7.854;2023-08-06T14:28:33;4.70;;;1.88;;
2452;SDS011;63678;47.994;7.854;2023-08-06T14:31:05;6.45;;;1.52;;
2452;SDS011;63678;47.994;7.854;2023-08-06T14:33:38;4.35;;;1.60;;
2452;SDS011;63678;47.994;7.854;2023-08-06T14:36:10;4.10;;;1.93;;
2452;SDS011;63678;47.994;7.854;2023-08-06T14:38:43;4.35;;;2.38;;
2452;SDS011;63678;47.994;7.854;2023-08-06T14:41:32;5.35;;;1.88;;
2452;SDS011;63678;47.994;7.854;2023-08-06T14:44:07;3.35;;;1.55;;
2452;SDS011;63678;47.994;7.854;2023-08-06T14:46:40;3.70;;;1.90;;
2452;SDS011;63678;47.994;7.854;2023-08-06T14:49:13;3.67;;;1.60;;
2452;SDS011;63678;47.994;7.854;2023-08-06T14:51:45;5.57;;;1.40;;
2452;SDS011;63678;47.994;7.854;2023-08-06T14:56:57;3.80;;;1.80;;
2452;SDS011;63678;47.994;7.854;2023-08-06T14:59:30;4.50;;;1.70;;
2452;SDS011;63678;47.994;7.854;2023-08-06T15:02:02;3.40;;;1.70;;
2452;SDS011;63678;47.994;7.854;2023-08-06T15:04:35;4.20;;;1.42;;
2452;SDS011;63678;47.994;7.854;2023-08-06T15:07:07;3.20;;;1.40;;
2452;SDS011;63678;47.994;7.854;2023-08-06T15:09:44;3.50;;;1.48;;
2452;SDS011;63678;47.994;7.854;2023-08-06T15:12:37;3.85;;;1.73;;
2452;SDS011;63678;47.994;7.854;2023-08-06T15:15:18;4.53;;;1.80;;
2452;SDS011;63678;47.994;7.854;2023-08-06T15:17:51;3.88;;;1.70;;
2452;SDS011;63678;47.994;7.854;2023-08-06T15:20:24;3.83;;;1.50;;
2452;SDS011;63678;47.994;7.854;2023-08-06T15:22:56;4.00;;;1.83;;
2452;SDS011;63678;47.994;7.854;2023-08-06T15:25:29;3.88;;;1.83;;
2452;SDS011;63678;47.994;7.854;2023-08-06T15:28:01;4.10;;;1.90;;
2452;SDS011;63678;47.994;7.854;2023-08-06T15:30:34;4.60;;;1.83;;
2452;SDS011;63678;47.994;7.854;2023-08-06T15:33:06;7.47;;;1.90;;
2452;SDS011;63678;47.994;7.854;2023-08-06T15:35:39;6.00;;;2.05;;
2452;SDS011;63678;47.994;7.854;2023-08-06T15:38:11;4.95;;;1.75;;
2452;SDS011;63678;47.994;7.854;2023-08-06T15:40:44;4.30;;;2.00;;
2452;SDS011;63678;47.994;7.854;2023-08-06T15:43:17;5.85;;;2.10;;
2452;SDS011;63678;47.994;7.854;2023-08-06T15:45:49;6.10;;;2.20;;
2452;SDS011;63678;47.994;7.854;2023-08-06T15:48:21;4.35;;;2.05;;